sensor_id;sensor_type;location;lat;lon;timestamp;P1;durP1;ratioP1;P2;durP2;ratioP2
46222;SDS011;31943;51.410;7.564;2022-10-19T00:01:10;18.30;;;3.45;;
46222;SDS011;31943;51.410;7.564;2022-10-19T00:03:37;16.75;;;3.70;;
46222;SDS011;31943;51.410;7.564;2022-10-19T00:06:13;8.85;;;3.40;;
46222;SDS011;31943;51.410;7.564;2022-10-19T00:08:41;14.60;;;3.20;;
46222;SDS011;31943;51.410;7.564;2022-10-19T00:11:07;10.15;;;2.85;;
46222;SDS011;31943;51.410;7.564;2022-10-19T00:13:33;9.80;;;2.83;;
46222;SDS011;31943;51.410;7.564;2022-10-19T00:15:59;8.93;;;3.13;;
46222;SDS011;31943;51.410;7.564;2022-10-19T00:18:26;5.25;;;2.78;;
46222;SDS011;31943;51.410;7.564;2022-10-19T00:20:52;6.97;;;2.90;;
46222;SDS011;31943;51.410;7.564;2022-10-19T00:23:28;8.40;;;3.20;;
46222;SDS011;31943;51.410;7.564;2022-10-19T00:25:54;7.03;;;3.40;;
46222;SDS011;31943;51.410;7.564;2022-10-19T00:28:20;7.35;;;2.85;;
46222;SDS011;31943;51.410;7.564;2022-10-19T00:30:45;6.97;;;2.72;;
46222;SDS011;31943;51.410;7.564;2022-10-19T00:33:11;11.55;;;3.00;;
46222;SDS011;31943;51.410;7.564;2022-10-19T00:35:38;5.13;;;2.75;;
46222;SDS011;31943;51.410;7.564;2022-10-19T00:38:06;10.77;;;3.05;;
46222;SDS011;31943;51.410;7.564;2022-10-19T00:40:37;7.63;;;2.67;;
46222;SDS011;31943;51.410;7.564;2022-10-19T00:43:04;13.75;;;3.40;;
46222;SDS011;31943;51.410;7.564;2022-10-19T00:45:30;6.07;;;2.60;;
46222;SDS011;31943;51.410;7.564;2022-10-19T00:47:56;7.55;;;2.70;;
46222;SDS011;31943;51.410;7.564;2022-10-19T00:50:22;7.25;;;3.00;;
46222;SDS011;31943;51.410;7.564;2022-10-19T00:52:48;3.60;;;2.67;;
46222;SDS011;31943;51.410;7.564;2022-10-19T00:55:14;6.78;;;2.75;;
46222;SDS011;31943;51.410;7.564;2022-10-19T00:57:43;6.97;;;2.65;;
46222;SDS011;31943;51.410;7.564;2022-10-19T01:00:09;12.88;;;3.20;;
46222;SDS011;31943;51.410;7.564;2022-10-19T01:02:36;8.45;;;3.38;;
46222;SDS011;31943;51.410;7.564;2022-10-19T01:05:02;10.45;;;2.72;;
46222;SDS011;31943;51.410;7.564;2022-10-19T01:07:28;7.68;;;3.10;;
46222;SDS011;31943;51.410;7.564;2022-10-19T01:09:55;6.32;;;2.60;;
46222;SDS011;31943;51.410;7.564;2022-10-19T01:12:30;4.68;;;2.83;;
46222;SDS011;31943;51.410;7.564;2022-10-19T01:15:21;4.50;;;2.80;;
46222;SDS011;31943;51.410;7.564;2022-10-19T01:17:58;6.38;;;2.78;;
46222;SDS011;31943;51.410;7.564;2022-10-19T01:20:34;4.75;;;2.40;;
46222;SDS011;31943;51.410;7.564;2022-10-19T01:23:27;9.88;;;2.70;;
46222;SDS011;31943;51.410;7.564;2022-10-19T01:26:11;5.88;;;2.50;;
46222;SDS011;31943;51.410;7.564;2022-10-19T01:28:50;8.52;;;2.30;;
46222;SDS011;31943;51.410;7.564;2022-10-19T01:31:30;7.25;;;2.83;;
46222;SDS011;31943;51.410;7.564;2022-10-19T01:34:03;9.23;;;2.60;;
46222;SDS011;31943;51.410;7.564;2022-10-19T01:36:38;6.25;;;2.35;;
46222;SDS011;31943;51.410;7.564;2022-10-19T01:39:08;6.50;;;2.45;;
46222;SDS011;31943;51.410;7.564;2022-10-19T01:41:40;3.05;;;2.15;;
46222;SDS011;31943;51.410;7.564;2022-10-19T01:44:12;6.15;;;2.60;;
46222;SDS011;31943;51.410;7.564;2022-10-19T01:46:44;20.00;;;2.70;;
46222;SDS011;31943;51.410;7.564;2022-10-19T01:49:16;50.85;;;4.43;;
46222;SDS011;31943;51.410;7.564;2022-10-19T01:51:48;10.70;;;2.60;;
46222;SDS011;31943;51.410;7.564;2022-10-19T01:56:45;14.32;;;3.10;;
46222;SDS011;31943;51.410;7.564;2022-10-19T01:59:13;5.07;;;2.30;;
46222;SDS011;31943;51.410;7.564;2022-10-19T02:01:44;8.38;;;2.35;;
46222;SDS011;31943;51.410;7.564;2022-10-19T02:04:14;9.65;;;2.97;;
46222;SDS011;31943;51.410;7.564;2022-10-19T02:06:43;3.45;;;1.95;;
46222;SDS011;31943;51.410;7.564;2022-10-19T02:09:10;9.13;;;2.40;;
46222;SDS011;31943;51.410;7.564;2022-10-19T02:11:36;14.57;;;2.33;;
46222;SDS011;31943;51.410;7.564;2022-10-19T02:14:03;15.68;;;2.38;;
46222;SDS011;31943;51.410;7.564;2022-10-19T02:16:34;6.38;;;1.85;;
46222;SDS011;31943;51.410;7.564;2022-10-19T02:19:06;4.35;;;1.73;;
46222;SDS011;31943;51.410;7.564;2022-10-19T02:21:35;5.55;;;1.92;;
46222;SDS011;31943;51.410;7.564;2022-10-19T02:24:01;8.77;;;1.85;;
46222;SDS011;31943;51.410;7.564;2022-10-19T02:26:27;3.58;;;1.73;;
46222;SDS011;31943;51.410;7.564;2022-10-19T02:28:52;8.77;;;2.05;;
46222;SDS011;31943;51.410;7.564;2022-10-19T02:31:20;9.52;;;2.00;;
46222;SDS011;31943;51.410;7.564;2022-10-19T02:33:46;6.15;;;1.75;;
46222;SDS011;31943;51.410;7.564;2022-10-19T02:36:14;7.85;;;2.25;;
46222;SDS011;31943;51.410;7.564;2022-10-19T02:38:40;3.67;;;1.90;;
46222;SDS011;31943;51.410;7.564;2022-10-19T02:41:07;8.90;;;2.10;;
46222;SDS011;31943;51.410;7.564;2022-10-19T02:43:38;11.65;;;2.20;;
46222;SDS011;31943;51.410;7.564;2022-10-19T02:46:09;10.68;;;2.40;;
46222;SDS011;31943;51.410;7.564;2022-10-19T02:48:43;6.22;;;2.45;;
46222;SDS011;31943;51.410;7.564;2022-10-19T02:53:57;8.43;;;2.53;;
46222;SDS011;31943;51.410;7.564;2022-10-19T02:56:23;5.05;;;2.17;;
46222;SDS011;31943;51.410;7.564;2022-10-19T02:58:50;2.00;;;1.48;;
46222;SDS011;31943;51.410;7.564;2022-10-19T03:01:16;4.25;;;2.00;;
46222;SDS011;31943;51.410;7.564;2022-10-19T03:03:42;5.70;;;2.10;;
46222;SDS011;31943;51.410;7.564;2022-10-19T03:06:08;3.45;;;1.73;;
46222;SDS011;31943;51.410;7.564;2022-10-19T03:08:35;8.90;;;2.20;;
46222;SDS011;31943;51.410;7.564;2022-10-19T03:11:01;2.92;;;1.90;;
46222;SDS011;31943;51.410;7.564;2022-10-19T03:13:26;11.45;;;2.78;;
46222;SDS011;31943;51.410;7.564;2022-10-19T03:15:52;3.75;;;1.98;;
46222;SDS011;31943;51.410;7.564;2022-10-19T03:18:18;14.75;;;2.28;;
46222;SDS011;31943;51.410;7.564;2022-10-19T03:20:43;3.55;;;2.05;;
46222;SDS011;31943;51.410;7.564;2022-10-19T03:23:09;5.90;;;2.60;;
46222;SDS011;31943;51.410;7.564;2022-10-19T03:25:36;9.80;;;2.60;;
46222;SDS011;31943;51.410;7.564;2022-10-19T03:28:02;6.53;;;2.63;;
46222;SDS011;31943;51.410;7.564;2022-10-19T03:30:28;4.55;;;1.90;;
46222;SDS011;31943;51.410;7.564;2022-10-19T03:32:54;4.63;;;2.20;;
46222;SDS011;31943;51.410;7.564;2022-10-19T03:35:21;5.88;;;1.73;;
46222;SDS011;31943;51.410;7.564;2022-10-19T03:37:46;5.72;;;2.20;;
46222;SDS011;31943;51.410;7.564;2022-10-19T03:40:12;5.60;;;2.60;;
46222;SDS011;31943;51.410;7.564;2022-10-19T03:42:40;8.32;;;2.58;;
46222;SDS011;31943;51.410;7.564;2022-10-19T03:45:06;2.92;;;2.05;;
46222;SDS011;31943;51.410;7.564;2022-10-19T03:47:32;4.15;;;2.40;;
46222;SDS011;31943;51.410;7.564;2022-10-19T03:49:58;5.88;;;2.10;;
46222;SDS011;31943;51.410;7.564;2022-10-19T03:52:24;4.25;;;2.50;;
46222;SDS011;31943;51.410;7.564;2022-10-19T03:54:50;5.07;;;2.40;;
46222;SDS011;31943;51.410;7.564;2022-10-19T03:57:15;8.48;;;2.55;;
46222;SDS011;31943;51.410;7.564;2022-10-19T03:59:43;6.38;;;2.33;;
46222;SDS011;31943;51.410;7.564;2022-10-19T04:02:09;6.15;;;2.33;;
46222;SDS011;31943;51.410;7.564;2022-10-19T04:04:34;4.20;;;2.30;;
46222;SDS011;31943;51.410;7.564;2022-10-19T04:07:00;4.05;;;2.38;;
46222;SDS011;31943;51.410;7.564;2022-10-19T04:09:28;6.15;;;2.90;;
46222;SDS011;31943;51.410;7.564;2022-10-19T04:11:54;3.88;;;2.72;;
46222;SDS011;31943;51.410;7.564;2022-10-19T04:14:21;4.35;;;2.55;;
46222;SDS011;31943;51.410;7.564;2022-10-19T04:16:48;8.85;;;3.60;;
46222;SDS011;31943;51.410;7.564;2022-10-19T04:19:14;6.60;;;3.10;;
46222;SDS011;31943;51.410;7.564;2022-10-19T04:21:40;5.78;;;2.88;;
46222;SDS011;31943;51.410;7.564;2022-10-19T04:24:07;7.80;;;2.78;;
46222;SDS011;31943;51.410;7.564;2022-10-19T04:26:37;3.03;;;2.50;;
46222;SDS011;31943;51.410;7.564;2022-10-19T04:29:04;9.32;;;3.40;;
46222;SDS011;31943;51.410;7.564;2022-10-19T04:31:32;10.68;;;3.10;;
46222;SDS011;31943;51.410;7.564;2022-10-19T04:34:00;3.88;;;2.95;;
46222;SDS011;31943;51.410;7.564;2022-10-19T04:36:26;3.80;;;2.78;;
46222;SDS011;31943;51.410;7.564;2022-10-19T04:38:52;8.43;;;3.05;;
46222;SDS011;31943;51.410;7.564;2022-10-19T04:41:20;5.22;;;2.60;;
46222;SDS011;31943;51.410;7.564;2022-10-19T04:43:47;3.83;;;2.78;;
46222;SDS011;31943;51.410;7.564;2022-10-19T04:46:14;4.55;;;3.05;;
46222;SDS011;31943;51.410;7.564;2022-10-19T04:48:41;3.78;;;2.60;;
46222;SDS011;31943;51.410;7.564;2022-10-19T04:51:10;8.43;;;3.20;;
46222;SDS011;31943;51.410;7.564;2022-10-19T04:53:37;36.10;;;4.20;;
46222;SDS011;31943;51.410;7.564;2022-10-19T04:56:07;11.30;;;3.60;;
46222;SDS011;31943;51.410;7.564;2022-10-19T04:58:49;14.77;;;3.58;;
46222;SDS011;31943;51.410;7.564;2022-10-19T05:04:58;10.95;;;3.10;;
46222;SDS011;31943;51.410;7.564;2022-10-19T05:16:38;40.05;;;11.20;;
46222;SDS011;31943;51.410;7.564;2022-10-19T05:19:10;47.17;;;22.42;;
46222;SDS011;31943;51.410;7.564;2022-10-19T05:21:38;16.48;;;6.72;;
46222;SDS011;31943;51.410;7.564;2022-10-19T05:24:15;25.30;;;5.95;;
46222;SDS011;31943;51.410;7.564;2022-10-19T05:29:29;14.18;;;4.60;;
46222;SDS011;31943;51.410;7.564;2022-10-19T05:32:26;9.82;;;3.45;;
46222;SDS011;31943;51.410;7.564;2022-10-19T05:35:21;8.90;;;3.42;;
46222;SDS011;31943;51.410;7.564;2022-10-19T05:38:10;5.57;;;3.88;;
46222;SDS011;31943;51.410;7.564;2022-10-19T05:41:01;45.08;;;5.20;;
46222;SDS011;31943;51.410;7.564;2022-10-19T05:43:30;10.80;;;4.25;;
46222;SDS011;31943;51.410;7.564;2022-10-19T05:46:01;18.63;;;4.80;;
46222;SDS011;31943;51.410;7.564;2022-10-19T05:48:35;10.82;;;4.82;;
46222;SDS011;31943;51.410;7.564;2022-10-19T05:58:25;13.57;;;3.80;;
46222;SDS011;31943;51.410;7.564;2022-10-19T06:56:17;5.45;;;2.33;;
46222;SDS011;31943;51.410;7.564;2022-10-19T08:27:50;8.85;;;5.35;;
46222;SDS011;31943;51.410;7.564;2022-10-19T09:22:42;11.85;;;9.27;;
46222;SDS011;31943;51.410;7.564;2022-10-19T09:25:24;12.48;;;9.88;;
46222;SDS011;31943;51.410;7.564;2022-10-19T09:27:56;13.65;;;9.95;;
46222;SDS011;31943;51.410;7.564;2022-10-19T09:30:43;11.75;;;8.27;;
46222;SDS011;31943;51.410;7.564;2022-10-19T09:33:31;11.27;;;7.97;;
46222;SDS011;31943;51.410;7.564;2022-10-19T09:36:01;8.75;;;7.25;;
46222;SDS011;31943;51.410;7.564;2022-10-19T09:38:31;7.03;;;6.13;;
46222;SDS011;31943;51.410;7.564;2022-10-19T09:41:09;11.02;;;7.15;;
46222;SDS011;31943;51.410;7.564;2022-10-19T09:43:42;10.20;;;7.80;;
46222;SDS011;31943;51.410;7.564;2022-10-19T09:46:19;9.52;;;6.78;;
46222;SDS011;31943;51.410;7.564;2022-10-19T09:49:37;10.10;;;4.03;;
46222;SDS011;31943;51.410;7.564;2022-10-19T09:52:05;11.57;;;3.97;;
46222;SDS011;31943;51.410;7.564;2022-10-19T09:57:19;8.77;;;2.70;;
46222;SDS011;31943;51.410;7.564;2022-10-19T10:02:27;6.75;;;2.28;;
46222;SDS011;31943;51.410;7.564;2022-10-19T10:05:05;8.70;;;2.45;;
46222;SDS011;31943;51.410;7.564;2022-10-19T10:07:39;4.68;;;1.92;;
46222;SDS011;31943;51.410;7.564;2022-10-19T10:10:09;7.60;;;1.90;;
46222;SDS011;31943;51.410;7.564;2022-10-19T10:13:33;5.88;;;2.10;;
46222;SDS011;31943;51.410;7.564;2022-10-19T12:24:49;3.05;;;1.48;;
46222;SDS011;31943;51.410;7.564;2022-10-19T12:27:23;6.95;;;1.20;;
46222;SDS011;31943;51.410;7.564;2022-10-19T12:30:08;4.85;;;1.33;;
46222;SDS011;31943;51.410;7.564;2022-10-19T12:35:20;5.28;;;1.27;;
46222;SDS011;31943;51.410;7.564;2022-10-19T12:38:08;3.85;;;1.45;;
46222;SDS011;31943;51.410;7.564;2022-10-19T12:52:35;4.30;;;1.30;;
46222;SDS011;31943;51.410;7.564;2022-10-19T13:02:21;4.15;;;1.08;;
46222;SDS011;31943;51.410;7.564;2022-10-19T13:05:03;2.05;;;0.90;;
46222;SDS011;31943;51.410;7.564;2022-10-19T13:08:25;8.02;;;1.67;;
46222;SDS011;31943;51.410;7.564;2022-10-19T13:11:09;3.17;;;1.27;;
46222;SDS011;31943;51.410;7.564;2022-10-19T13:14:41;7.03;;;1.95;;
46222;SDS011;31943;51.410;7.564;2022-10-19T15:42:37;4.95;;;1.10;;
46222;SDS011;31943;51.410;7.564;2022-10-19T15:45:28;6.90;;;2.75;;
46222;SDS011;31943;51.410;7.564;2022-10-19T15:51:33;6.85;;;2.45;;
46222;SDS011;31943;51.410;7.564;2022-10-19T15:54:19;2.97;;;1.05;;
46222;SDS011;31943;51.410;7.564;2022-10-19T17:03:33;4.13;;;1.65;;
46222;SDS011;31943;51.410;7.564;2022-10-19T17:06:24;3.85;;;1.80;;
46222;SDS011;31943;51.410;7.564;2022-10-19T17:08:57;5.05;;;1.50;;
46222;SDS011;31943;51.410;7.564;2022-10-19T17:15:02;3.53;;;1.60;;
46222;SDS011;31943;51.410;7.564;2022-10-19T17:17:29;3.05;;;1.30;;
46222;SDS011;31943;51.410;7.564;2022-10-19T17:23:25;3.17;;;1.40;;
46222;SDS011;31943;51.410;7.564;2022-10-19T17:25:58;8.63;;;1.85;;
46222;SDS011;31943;51.410;7.564;2022-10-19T17:28:24;4.40;;;1.63;;
46222;SDS011;31943;51.410;7.564;2022-10-19T17:30:52;5.53;;;1.70;;
46222;SDS011;31943;51.410;7.564;2022-10-19T17:33:19;2.55;;;1.60;;
46222;SDS011;31943;51.410;7.564;2022-10-19T17:35:47;3.35;;;1.60;;
46222;SDS011;31943;51.410;7.564;2022-10-19T17:38:17;4.72;;;1.40;;
46222;SDS011;31943;51.410;7.564;2022-10-19T17:40:47;3.03;;;1.73;;
46222;SDS011;31943;51.410;7.564;2022-10-19T17:43:19;5.72;;;2.00;;
46222;SDS011;31943;51.410;7.564;2022-10-19T17:45:45;5.60;;;2.17;;
46222;SDS011;31943;51.410;7.564;2022-10-19T17:48:22;3.13;;;1.73;;
46222;SDS011;31943;51.410;7.564;2022-10-19T17:50:54;6.57;;;1.77;;
46222;SDS011;31943;51.410;7.564;2022-10-19T17:53:22;3.85;;;1.67;;
46222;SDS011;31943;51.410;7.564;2022-10-19T18:28:38;7.03;;;2.15;;
46222;SDS011;31943;51.410;7.564;2022-10-19T18:31:06;8.30;;;2.97;;
46222;SDS011;31943;51.410;7.564;2022-10-19T18:33:35;7.43;;;2.63;;
46222;SDS011;31943;51.410;7.564;2022-10-19T18:36:02;6.22;;;2.80;;
46222;SDS011;31943;51.410;7.564;2022-10-19T18:38:31;6.15;;;2.63;;
46222;SDS011;31943;51.410;7.564;2022-10-19T18:40:59;4.70;;;2.75;;
46222;SDS011;31943;51.410;7.564;2022-10-19T18:43:26;5.93;;;3.40;;
46222;SDS011;31943;51.410;7.564;2022-10-19T18:45:54;6.82;;;2.53;;
46222;SDS011;31943;51.410;7.564;2022-10-19T18:48:22;5.20;;;2.85;;
46222;SDS011;31943;51.410;7.564;2022-10-19T18:50:51;5.95;;;2.78;;
46222;SDS011;31943;51.410;7.564;2022-10-19T18:53:17;4.30;;;2.30;;
46222;SDS011;31943;51.410;7.564;2022-10-19T18:55:49;3.42;;;2.42;;
46222;SDS011;31943;51.410;7.564;2022-10-19T18:58:21;5.47;;;3.05;;
46222;SDS011;31943;51.410;7.564;2022-10-19T19:00:47;4.45;;;2.70;;
46222;SDS011;31943;51.410;7.564;2022-10-19T19:03:15;11.48;;;2.83;;
46222;SDS011;31943;51.410;7.564;2022-10-19T19:05:49;6.32;;;3.10;;
46222;SDS011;31943;51.410;7.564;2022-10-19T19:08:16;6.70;;;2.70;;
46222;SDS011;31943;51.410;7.564;2022-10-19T19:10:47;9.17;;;3.17;;
46222;SDS011;31943;51.410;7.564;2022-10-19T19:13:16;7.25;;;3.35;;
46222;SDS011;31943;51.410;7.564;2022-10-19T19:15:42;4.22;;;2.75;;
46222;SDS011;31943;51.410;7.564;2022-10-19T19:18:29;5.28;;;3.08;;
46222;SDS011;31943;51.410;7.564;2022-10-19T19:20:58;5.95;;;2.65;;
46222;SDS011;31943;51.410;7.564;2022-10-19T19:23:25;4.75;;;2.88;;
46222;SDS011;31943;51.410;7.564;2022-10-19T19:25:50;4.88;;;2.85;;
46222;SDS011;31943;51.410;7.564;2022-10-19T19:28:16;3.20;;;2.25;;
46222;SDS011;31943;51.410;7.564;2022-10-19T19:30:43;2.42;;;1.95;;
46222;SDS011;31943;51.410;7.564;2022-10-19T19:33:10;7.82;;;2.65;;
46222;SDS011;31943;51.410;7.564;2022-10-19T19:35:43;6.72;;;2.30;;
46222;SDS011;31943;51.410;7.564;2022-10-19T19:38:13;4.57;;;2.08;;
46222;SDS011;31943;51.410;7.564;2022-10-19T19:40:40;5.28;;;1.80;;
46222;SDS011;31943;51.410;7.564;2022-10-19T19:43:09;5.20;;;1.83;;
46222;SDS011;31943;51.410;7.564;2022-10-19T19:45:37;2.05;;;1.73;;
46222;SDS011;31943;51.410;7.564;2022-10-19T19:48:20;3.83;;;2.50;;
46222;SDS011;31943;51.410;7.564;2022-10-19T19:50:49;4.95;;;2.28;;
46222;SDS011;31943;51.410;7.564;2022-10-19T19:53:15;5.40;;;2.10;;
46222;SDS011;31943;51.410;7.564;2022-10-19T19:55:41;7.75;;;2.60;;
46222;SDS011;31943;51.410;7.564;2022-10-19T19:58:10;4.70;;;2.17;;
46222;SDS011;31943;51.410;7.564;2022-10-19T20:00:37;5.63;;;2.75;;
46222;SDS011;31943;51.410;7.564;2022-10-19T20:03:05;5.45;;;2.63;;
46222;SDS011;31943;51.410;7.564;2022-10-19T20:05:32;3.95;;;2.38;;
46222;SDS011;31943;51.410;7.564;2022-10-19T20:08:02;5.10;;;2.13;;
46222;SDS011;31943;51.410;7.564;2022-10-19T20:10:30;5.05;;;2.20;;
46222;SDS011;31943;51.410;7.564;2022-10-19T20:12:57;6.20;;;2.30;;
46222;SDS011;31943;51.410;7.564;2022-10-19T20:15:24;5.78;;;1.80;;
46222;SDS011;31943;51.410;7.564;2022-10-19T20:17:50;7.93;;;3.00;;
46222;SDS011;31943;51.410;7.564;2022-10-19T20:20:16;3.80;;;2.55;;
46222;SDS011;31943;51.410;7.564;2022-10-19T20:22:44;6.13;;;2.67;;
46222;SDS011;31943;51.410;7.564;2022-10-19T20:25:17;4.85;;;2.53;;
46222;SDS011;31943;51.410;7.564;2022-10-19T20:27:42;3.75;;;2.00;;
46222;SDS011;31943;51.410;7.564;2022-10-19T20:30:09;3.17;;;1.95;;
46222;SDS011;31943;51.410;7.564;2022-10-19T20:32:35;3.67;;;2.70;;
46222;SDS011;31943;51.410;7.564;2022-10-19T20:35:01;5.10;;;2.75;;
46222;SDS011;31943;51.410;7.564;2022-10-19T20:37:28;3.45;;;2.55;;
46222;SDS011;31943;51.410;7.564;2022-10-19T20:39:55;9.50;;;2.85;;
46222;SDS011;31943;51.410;7.564;2022-10-19T20:42:23;5.20;;;3.08;;
46222;SDS011;31943;51.410;7.564;2022-10-19T20:44:49;9.32;;;3.15;;
46222;SDS011;31943;51.410;7.564;2022-10-19T20:47:16;4.18;;;2.83;;
46222;SDS011;31943;51.410;7.564;2022-10-19T20:49:43;5.63;;;2.42;;
46222;SDS011;31943;51.410;7.564;2022-10-19T20:52:13;4.97;;;2.50;;
46222;SDS011;31943;51.410;7.564;2022-10-19T20:54:46;9.52;;;3.03;;
46222;SDS011;31943;51.410;7.564;2022-10-19T20:57:14;4.63;;;2.80;;
46222;SDS011;31943;51.410;7.564;2022-10-19T20:59:43;8.15;;;3.25;;
46222;SDS011;31943;51.410;7.564;2022-10-19T21:02:12;9.80;;;3.10;;
46222;SDS011;31943;51.410;7.564;2022-10-19T21:04:37;4.57;;;2.45;;
46222;SDS011;31943;51.410;7.564;2022-10-19T21:07:03;4.38;;;2.72;;
46222;SDS011;31943;51.410;7.564;2022-10-19T21:09:30;5.53;;;2.72;;
46222;SDS011;31943;51.410;7.564;2022-10-19T21:12:02;5.07;;;2.90;;
46222;SDS011;31943;51.410;7.564;2022-10-19T21:17:07;4.57;;;2.97;;
46222;SDS011;31943;51.410;7.564;2022-10-19T21:19:39;5.57;;;2.53;;
46222;SDS011;31943;51.410;7.564;2022-10-19T21:22:11;4.78;;;2.38;;
46222;SDS011;31943;51.410;7.564;2022-10-19T21:24:37;5.80;;;3.03;;
46222;SDS011;31943;51.410;7.564;2022-10-19T21:27:06;6.05;;;2.83;;
46222;SDS011;31943;51.410;7.564;2022-10-19T21:29:33;3.63;;;2.78;;
46222;SDS011;31943;51.410;7.564;2022-10-19T21:31:59;4.68;;;2.55;;
46222;SDS011;31943;51.410;7.564;2022-10-19T21:34:37;4.75;;;2.58;;
46222;SDS011;31943;51.410;7.564;2022-10-19T21:37:07;8.98;;;3.17;;
46222;SDS011;31943;51.410;7.564;2022-10-19T21:39:39;6.15;;;2.80;;
46222;SDS011;31943;51.410;7.564;2022-10-19T21:42:10;7.00;;;3.20;;
46222;SDS011;31943;51.410;7.564;2022-10-19T21:44:36;4.60;;;3.35;;
46222;SDS011;31943;51.410;7.564;2022-10-19T21:47:06;7.07;;;3.33;;
46222;SDS011;31943;51.410;7.564;2022-10-19T21:58:34;4.80;;;3.67;;
46222;SDS011;31943;51.410;7.564;2022-10-19T22:01:05;4.75;;;3.67;;
46222;SDS011;31943;51.410;7.564;2022-10-19T22:06:40;6.65;;;3.78;;
46222;SDS011;31943;51.410;7.564;2022-10-19T22:09:12;5.55;;;3.53;;
46222;SDS011;31943;51.410;7.564;2022-10-19T22:11:42;7.85;;;4.40;;
46222;SDS011;31943;51.410;7.564;2022-10-19T22:14:11;6.13;;;3.85;;
46222;SDS011;31943;51.410;7.564;2022-10-19T22:16:41;7.38;;;3.53;;
46222;SDS011;31943;51.410;7.564;2022-10-19T22:19:15;10.63;;;4.22;;
46222;SDS011;31943;51.410;7.564;2022-10-19T22:22:08;6.43;;;4.60;;
46222;SDS011;31943;51.410;7.564;2022-10-19T22:24:42;7.47;;;3.53;;
46222;SDS011;31943;51.410;7.564;2022-10-19T22:27:13;4.68;;;3.53;;
46222;SDS011;31943;51.410;7.564;2022-10-19T22:29:42;9.05;;;3.95;;
46222;SDS011;31943;51.410;7.564;2022-10-19T22:32:08;8.02;;;4.28;;
46222;SDS011;31943;51.410;7.564;2022-10-19T22:34:46;4.72;;;3.40;;
46222;SDS011;31943;51.410;7.564;2022-10-19T22:37:15;9.20;;;4.05;;
46222;SDS011;31943;51.410;7.564;2022-10-19T22:39:43;4.85;;;3.28;;
46222;SDS011;31943;51.410;7.564;2022-10-19T22:42:33;6.53;;;3.70;;
46222;SDS011;31943;51.410;7.564;2022-10-19T22:45:05;7.70;;;3.92;;
46222;SDS011;31943;51.410;7.564;2022-10-19T22:47:32;5.22;;;4.28;;
46222;SDS011;31943;51.410;7.564;2022-10-19T22:49:58;7.00;;;4.22;;
46222;SDS011;31943;51.410;7.564;2022-10-19T22:52:25;7.45;;;3.42;;
46222;SDS011;31943;51.410;7.564;2022-10-19T22:54:59;7.50;;;3.67;;
46222;SDS011;31943;51.410;7.564;2022-10-19T22:57:25;7.30;;;3.50;;
46222;SDS011;31943;51.410;7.564;2022-10-19T23:00:00;6.53;;;4.07;;
46222;SDS011;31943;51.410;7.564;2022-10-19T23:02:26;4.93;;;4.15;;
46222;SDS011;31943;51.410;7.564;2022-10-19T23:04:55;6.25;;;3.88;;
46222;SDS011;31943;51.410;7.564;2022-10-19T23:07:22;7.15;;;4.15;;
46222;SDS011;31943;51.410;7.564;2022-10-19T23:09:48;7.05;;;4.32;;
46222;SDS011;31943;51.410;7.564;2022-10-19T23:12:17;7.28;;;3.92;;
46222;SDS011;31943;51.410;7.564;2022-10-19T23:14:45;7.15;;;3.70;;
46222;SDS011;31943;51.410;7.564;2022-10-19T23:20:07;8.15;;;4.03;;
46222;SDS011;31943;51.410;7.564;2022-10-19T23:22:53;5.25;;;3.90;;
46222;SDS011;31943;51.410;7.564;2022-10-19T23:25:42;5.95;;;4.13;;
46222;SDS011;31943;51.410;7.564;2022-10-19T23:28:09;7.70;;;4.03;;
46222;SDS011;31943;51.410;7.564;2022-10-19T23:30:42;6.40;;;4.15;;
46222;SDS011;31943;51.410;7.564;2022-10-19T23:33:11;5.05;;;3.83;;
46222;SDS011;31943;51.410;7.564;2022-10-19T23:35:41;5.97;;;4.53;;
46222;SDS011;31943;51.410;7.564;2022-10-19T23:40:58;6.05;;;4.00;;
46222;SDS011;31943;51.410;7.564;2022-10-19T23:43:27;6.60;;;4.15;;
46222;SDS011;31943;51.410;7.564;2022-10-19T23:45:55;6.85;;;4.50;;
46222;SDS011;31943;51.410;7.564;2022-10-19T23:48:22;7.28;;;4.32;;
46222;SDS011;31943;51.410;7.564;2022-10-19T23:56:11;6.13;;;4.53;;
46222;SDS011;31943;51.410;7.564;2022-10-19T23:58:43;6.72;;;4.05;;
